Time;durP1;ratioP1;P1;durP2;ratioP2;P2;SDS_P1;SDS_P2;PMS_P1;PMS_P2;Temp;Humidity;BMP_temperature;BMP_pressure;BME280_temperature;BME280_humidity;BME280_pressure;Samples;Min_cycle;Max_cycle;Signal;HPM_P1;HPM_P2
2021/07/14 00:01:10;;;;;;;11.95;5.15;;;;;;;22.82;71.46;99647.89;1720757;80;21560;-64
2021/07/14 00:03:36;;;;;;;8.18;3.10;;;;;;;22.80;71.63;99648.55;1719487;80;21809;-63
2021/07/14 00:06:03;;;;;;;12.20;4.97;;;;;;;22.79;71.69;99645.98;1715785;80;21120;-62
2021/07/14 00:08:29;;;;;;;10.68;5.15;;;;;;;22.77;71.71;99642.02;1716061;80;21073;-60
2021/07/14 00:10:56;;;;;;;9.05;5.95;;;;;;;22.74;71.84;99646.42;1715587;80;21309;-62
2021/07/14 00:13:28;;;;;;;6.10;3.58;;;;;;;22.72;71.90;99643.44;1716416;80;22346;-62
2021/07/14 00:23:58;;;;;;;3.62;2.92;;;;;;;22.58;71.79;99645.70;1723281;80;21406;-62
2021/07/14 00:26:24;;;;;;;4.05;3.37;;;;;;;22.53;71.74;99641.19;1724988;80;20963;-61
2021/07/14 00:28:52;;;;;;;3.22;3.02;;;;;;;22.48;71.83;99641.27;1719203;80;21100;-59
2021/07/14 00:31:18;;;;;;;4.47;2.67;;;;;;;22.45;71.86;99646.58;1726072;80;20974;-61
2021/07/14 00:33:45;;;;;;;3.35;2.95;;;;;;;22.43;71.99;99645.85;1727475;80;21365;-61
2021/07/14 00:36:13;;;;;;;2.47;2.37;;;;;;;22.40;71.96;99648.89;1727263;80;21425;-63
2021/07/14 00:38:40;;;;;;;3.10;2.90;;;;;;;22.35;71.94;99647.12;1731505;80;20989;-61
2021/07/14 00:41:07;;;;;;;2.50;2.30;;;;;;;22.30;71.91;99645.32;1723937;80;21133;-58
2021/07/14 00:43:33;;;;;;;4.70;2.87;;;;;;;22.24;71.90;99648.16;1723995;80;22402;-59
2021/07/14 00:46:24;;;;;;;3.83;2.85;;;;;;;22.17;71.91;99647.05;1724969;80;21037;-59
2021/07/14 00:48:52;;;;;;;5.22;2.85;;;;;;;22.13;71.93;99654.33;1726515;80;21054;-58
2021/07/14 00:51:18;;;;;;;2.47;2.15;;;;;;;22.06;72.04;99658.69;1709395;82;20907;-57
2021/07/14 00:53:44;;;;;;;3.33;3.02;;;;;;;22.00;72.09;99655.19;1724610;80;21211;-61
2021/07/14 00:56:12;;;;;;;3.25;3.05;;;;;;;21.96;72.13;99656.44;1724675;80;21224;-59
2021/07/14 00:58:39;;;;;;;4.47;3.12;;;;;;;21.93;72.32;99651.28;1722464;80;22031;-63
2021/07/14 01:01:05;;;;;;;3.52;3.22;;;;;;;21.89;72.45;99647.96;1724401;80;21396;-59
2021/07/14 01:03:42;;;;;;;3.83;2.83;;;;;;;21.87;72.53;99644.50;1726302;80;21622;-62
2021/07/14 01:06:12;;;;;;;3.27;3.05;;;;;;;21.83;72.60;99645.31;1725580;80;21134;-63
2021/07/14 01:08:46;;;;;;;4.90;4.50;;;;;;;21.80;72.67;99644.73;1723695;80;21119;-56
2021/07/14 01:11:16;;;;;;;5.65;2.75;;;;;;;21.76;72.75;99650.17;1729133;80;21452;-62
2021/07/14 01:13:55;;;;;;;3.15;2.83;;;;;;;21.71;72.75;99646.48;1711347;80;21568;-56
2021/07/14 01:16:24;;;;;;;4.15;3.25;;;;;;;21.68;72.71;99652.28;1724853;80;21666;-55
2021/07/14 01:19:27;;;;;;;3.25;3.05;;;;;;;21.64;72.86;99646.72;1724393;80;21081;-56
2021/07/14 01:21:54;;;;;;;3.40;3.10;;;;;;;21.62;73.00;99646.50;1723688;80;21160;-56
2021/07/14 01:24:34;;;;;;;3.40;2.92;;;;;;;21.58;73.03;99647.31;1729820;80;21121;-55
2021/07/14 01:27:10;;;;;;;3.30;2.58;;;;;;;21.56;73.11;99649.33;1724873;80;21363;-56
2021/07/14 01:29:54;;;;;;;5.45;3.77;;;;;;;21.56;73.27;99647.09;1725725;80;20922;-55
2021/07/14 01:32:25;;;;;;;3.25;3.02;;;;;;;21.54;73.36;99649.97;1728620;80;21412;-55
2021/07/14 01:35:07;;;;;;;5.25;3.22;;;;;;;21.53;73.35;99645.00;1728034;80;21526;-55
2021/07/14 01:37:33;;;;;;;4.00;3.50;;;;;;;21.51;73.35;99644.80;1723579;80;22194;-56
2021/07/14 01:40:00;;;;;;;5.22;2.35;;;;;;;21.47;73.49;99642.84;1724234;80;22583;-56
2021/07/14 01:42:29;;;;;;;2.85;2.65;;;;;;;21.45;73.58;99647.59;1726202;80;21524;-56
2021/07/14 01:44:57;;;;;;;3.60;3.27;;;;;;;21.43;73.50;99649.64;1725731;80;21204;-56
2021/07/14 01:47:23;;;;;;;5.62;2.50;;;;;;;21.41;73.46;99644.81;1722592;80;21086;-59
2021/07/14 01:49:50;;;;;;;3.20;3.00;;;;;;;21.40;73.53;99643.58;1725773;80;21093;-56
2021/07/14 01:52:20;;;;;;;3.27;3.17;;;;;;;21.39;73.53;99650.92;1728983;80;21096;-55
2021/07/14 01:54:49;;;;;;;3.40;3.00;;;;;;;21.37;73.59;99649.34;1726818;80;21121;-55
2021/07/14 01:57:15;;;;;;;5.45;2.92;;;;;;;21.37;73.66;99647.97;1721686;80;21103;-57
2021/07/14 01:59:44;;;;;;;4.92;4.28;;;;;;;21.35;73.84;99654.95;1723555;80;21148;-56
2021/07/14 02:02:11;;;;;;;4.62;4.08;;;;;;;21.33;73.91;99649.28;1724003;80;21085;-57
2021/07/14 02:04:40;;;;;;;3.62;3.20;;;;;;;21.33;73.93;99658.86;1730218;80;21685;-55
2021/07/14 02:07:19;;;;;;;3.30;3.12;;;;;;;21.32;73.79;99656.63;1724608;80;21348;-56
2021/07/14 02:09:47;;;;;;;6.53;3.22;;;;;;;21.30;73.68;99651.80;1726311;80;21079;-55
2021/07/14 02:12:24;;;;;;;2.02;1.92;;;;;;;21.27;73.74;99656.17;1702213;80;21034;-56
2021/07/14 02:15:01;;;;;;;3.25;2.95;;;;;;;21.25;73.80;99656.84;1723025;80;21468;-56
2021/07/14 02:17:43;;;;;;;4.85;3.75;;;;;;;21.24;73.95;99660.59;1724182;80;21081;-56
2021/07/14 02:20:15;;;;;;;4.15;3.85;;;;;;;21.25;74.05;99662.33;1728441;80;20986;-56
2021/07/14 02:22:42;;;;;;;6.00;3.50;;;;;;;21.24;74.04;99665.20;1724278;80;21104;-56
2021/07/14 02:25:10;;;;;;;3.15;2.95;;;;;;;21.22;74.08;99660.36;1723976;80;21033;-57
2021/07/14 02:27:38;;;;;;;5.03;3.15;;;;;;;21.21;74.18;99662.23;1728822;80;20995;-56
2021/07/14 02:30:14;;;;;;;3.50;3.08;;;;;;;21.22;74.14;99663.97;1727673;80;20915;-56
2021/07/14 02:32:37;;;;;;;3.67;3.37;;;;;;;21.23;74.14;99660.73;1715057;80;21512;-56
2021/07/14 02:35:07;;;;;;;5.87;3.25;;;;;;;21.22;74.14;99661.23;1709395;81;21773;-55
2021/07/14 02:37:53;;;;;;;3.05;2.87;;;;;;;21.23;74.07;99661.59;1712501;81;20994;-55
2021/07/14 02:40:41;;;;;;;7.62;3.75;;;;;;;21.24;74.06;99660.59;1698452;81;21140;-56
2021/07/14 02:43:07;;;;;;;5.45;4.55;;;;;;;21.24;74.10;99672.91;1709929;81;21121;-56
2021/07/14 02:45:36;;;;;;;3.72;3.42;;;;;;;21.24;74.18;99661.96;1711662;81;21093;-55
2021/07/14 02:48:03;;;;;;;3.27;3.08;;;;;;;21.25;74.25;99666.43;1712532;81;21373;-56
2021/07/14 02:50:31;;;;;;;5.85;3.58;;;;;;;21.26;74.27;99677.75;1714508;81;21532;-56
2021/07/14 02:53:09;;;;;;;3.62;3.40;;;;;;;21.27;74.37;99680.81;1714174;81;21034;-56
2021/07/14 02:55:36;;;;;;;3.52;2.77;;;;;;;21.28;74.45;99682.55;1712713;81;21043;-56
2021/07/14 02:58:03;;;;;;;2.08;1.95;;;;;;;21.29;74.44;99680.67;1708400;81;21507;-57
2021/07/14 03:00:29;;;;;;;2.98;2.62;;;;;;;21.32;74.33;99684.50;1712910;81;21106;-57
2021/07/14 03:02:57;;;;;;;5.03;2.98;;;;;;;21.32;74.34;99681.27;1710646;81;21053;-56
2021/07/14 03:05:26;;;;;;;3.20;2.70;;;;;;;21.34;74.20;99679.77;1688545;81;21081;-57
2021/07/14 03:07:52;;;;;;;4.28;2.25;;;;;;;21.36;74.20;99681.32;1695791;82;21082;-57
2021/07/14 03:10:20;;;;;;;3.55;2.80;;;;;;;21.37;74.24;99686.30;1708608;81;21090;-55
2021/07/14 03:12:55;;;;;;;2.55;2.35;;;;;;;21.39;74.32;99679.67;1711015;81;21098;-56
2021/07/14 03:15:21;;;;;;;3.33;3.12;;;;;;;21.41;74.53;99685.02;1713233;81;21512;-56
2021/07/14 03:17:48;;;;;;;3.60;2.75;;;;;;;21.45;74.80;99693.28;1714890;81;21386;-56
2021/07/14 03:20:16;;;;;;;3.77;3.30;;;;;;;21.47;74.99;99694.88;1716544;81;20959;-57
2021/07/14 03:22:47;;;;;;;2.98;2.67;;;;;;;21.51;75.10;99689.98;1713491;81;21082;-56
2021/07/14 03:25:14;;;;;;;3.47;2.92;;;;;;;21.54;75.22;99688.31;1715348;81;21122;-55
2021/07/14 03:27:40;;;;;;;3.35;3.15;;;;;;;21.57;75.22;99685.80;1717245;81;20938;-55
2021/07/14 03:30:08;;;;;;;5.55;3.37;;;;;;;21.61;75.29;99684.48;1712826;81;20891;-57
2021/07/14 03:32:35;;;;;;;5.20;4.72;;;;;;;21.66;75.32;99688.53;1699931;80;21028;-56
2021/07/14 03:35:01;;;;;;;5.67;4.35;;;;;;;21.70;75.42;99687.21;1735406;80;21428;-56
2021/07/14 03:37:27;;;;;;;4.45;4.15;;;;;;;21.76;75.42;99685.78;1735021;80;21078;-57
2021/07/14 03:39:54;;;;;;;6.87;4.37;;;;;;;21.82;75.62;99687.42;1734008;80;20954;-55
2021/07/14 03:42:20;;;;;;;4.17;3.90;;;;;;;21.90;75.80;99688.92;1734173;80;20954;-56
2021/07/14 03:44:47;;;;;;;4.12;3.83;;;;;;;21.98;76.02;99692.83;1707076;80;21061;-57
2021/07/14 03:47:15;;;;;;;3.92;3.72;;;;;;;22.05;76.29;99693.45;1731484;80;21054;-57
2021/07/14 03:49:42;;;;;;;3.65;3.45;;;;;;;22.13;76.36;99693.58;1699022;82;21120;-57
2021/07/14 03:52:11;;;;;;;3.80;3.50;;;;;;;22.20;76.50;99692.50;1670175;83;20925;-57
2021/07/14 03:54:38;;;;;;;4.95;3.00;;;;;;;22.29;76.60;99692.11;1658463;83;21345;-57
2021/07/14 03:57:04;;;;;;;2.35;2.25;;;;;;;22.36;76.48;99691.86;1701181;82;21088;-57
2021/07/14 03:59:31;;;;;;;5.33;2.80;;;;;;;22.43;76.30;99697.09;1667543;82;21083;-56
2021/07/14 04:01:57;;;;;;;3.17;2.98;;;;;;;22.48;76.20;99693.38;1680469;83;21651;-57
2021/07/14 04:04:24;;;;;;;3.98;3.72;;;;;;;22.57;76.24;99696.59;1678263;83;21104;-56
2021/07/14 04:07:02;;;;;;;5.70;4.20;;;;;;;22.63;76.38;99698.72;1679813;83;21039;-57
2021/07/14 04:09:29;;;;;;;4.08;3.52;;;;;;;22.71;76.49;99690.62;1682259;83;21795;-58
2021/07/14 04:12:01;;;;;;;5.30;4.00;;;;;;;22.81;76.29;99697.43;1680293;82;21686;-58
2021/07/14 04:14:28;;;;;;;5.92;4.25;;;;;;;22.91;76.36;99698.25;1677887;82;21110;-57
2021/07/14 04:16:57;;;;;;;3.00;2.83;;;;;;;23.00;76.69;99700.06;1680297;82;20998;-58
2021/07/14 04:19:25;;;;;;;3.17;2.98;;;;;;;23.11;76.78;99697.63;1682444;84;21526;-56
2021/07/14 04:21:52;;;;;;;7.08;2.90;;;;;;;23.22;76.83;99699.61;1679681;84;22289;-57
2021/07/14 04:24:18;;;;;;;5.05;2.70;;;;;;;23.32;76.68;99706.41;1690427;83;21097;-57
2021/07/14 04:26:46;;;;;;;5.03;2.80;;;;;;;23.42;76.57;99709.09;1697636;82;21152;-57
2021/07/14 04:29:13;;;;;;;3.90;3.65;;;;;;;23.51;76.16;99698.56;1703712;82;21072;-57
2021/07/14 04:31:40;;;;;;;3.90;3.37;;;;;;;23.59;75.30;99702.77;1698983;82;21060;-58
2021/07/14 04:34:07;;;;;;;4.00;3.55;;;;;;;23.67;74.41;99702.32;1703697;82;21095;-58
2021/07/14 04:36:34;;;;;;;5.22;4.25;;;;;;;23.77;73.61;99696.73;1682893;83;21578;-56
2021/07/14 04:39:04;;;;;;;4.15;3.95;;;;;;;23.87;72.73;99703.02;1680769;83;21804;-56
2021/07/14 04:41:30;;;;;;;4.03;3.72;;;;;;;23.96;72.07;99703.43;1703699;82;21232;-56
2021/07/14 04:44:00;;;;;;;3.25;2.72;;;;;;;24.03;71.48;99699.01;1698217;82;21422;-57
2021/07/14 04:46:26;;;;;;;3.98;3.65;;;;;;;24.14;71.23;99699.27;1685160;83;21063;-55
2021/07/14 04:48:54;;;;;;;2.58;2.47;;;;;;;24.24;70.94;99697.81;1680407;83;21087;-57
2021/07/14 04:51:21;;;;;;;3.12;3.02;;;;;;;24.34;70.53;99699.91;1670264;83;21165;-56
2021/07/14 04:53:48;;;;;;;3.42;3.12;;;;;;;24.42;70.26;99696.70;1702940;82;21233;-56
2021/07/14 04:56:17;;;;;;;4.20;2.98;;;;;;;24.54;69.87;99692.30;1695795;82;21067;-57
2021/07/14 04:58:46;;;;;;;3.47;3.27;;;;;;;24.63;69.20;99696.81;1700427;82;21017;-55
2021/07/14 05:01:16;;;;;;;4.08;3.45;;;;;;;24.73;68.70;99697.55;1698247;82;22304;-57
2021/07/14 05:03:46;;;;;;;3.77;3.40;;;;;;;24.81;68.10;99697.07;1671138;83;21147;-56
2021/07/14 05:06:15;;;;;;;4.58;3.45;;;;;;;24.90;67.64;99695.22;1699521;82;22075;-58
2021/07/14 05:08:42;;;;;;;4.00;3.70;;;;;;;25.00;67.33;99695.11;1702048;82;21068;-56
2021/07/14 05:11:08;;;;;;;3.50;3.22;;;;;;;25.08;66.60;99699.27;1707468;82;21046;-58
2021/07/14 05:16:11;;;;;;;3.30;3.00;;;;;;;25.34;66.13;99701.91;1846675;75;22047;-55
2021/07/14 05:18:39;;;;;;;5.33;3.83;;;;;;;25.40;65.86;99704.84;1822542;77;20957;-57
2021/07/14 05:21:06;;;;;;;4.75;4.45;;;;;;;25.52;65.90;99708.14;1829541;77;22278;-58
2021/07/14 05:23:33;;;;;;;3.77;3.30;;;;;;;25.60;65.48;99709.56;1823680;77;20903;-58
2021/07/14 05:25:59;;;;;;;2.72;2.52;;;;;;;25.69;64.79;99705.75;1822060;77;20937;-57
2021/07/14 05:28:27;;;;;;;3.87;3.45;;;;;;;25.78;64.44;99701.96;1820966;77;21012;-57
2021/07/14 05:30:53;;;;;;;3.00;2.80;;;;;;;25.86;63.98;99708.85;1813124;77;22121;-56
2021/07/14 05:33:19;;;;;;;3.45;3.17;;;;;;;25.92;63.17;99705.42;1814489;77;21119;-57
2021/07/14 05:35:47;;;;;;;3.72;3.35;;;;;;;25.98;62.54;99702.48;1813870;77;21012;-57
2021/07/14 05:38:20;;;;;;;2.85;2.65;;;;;;;26.05;62.14;99706.78;1808672;77;20981;-58
2021/07/14 05:40:50;;;;;;;2.40;2.20;;;;;;;26.10;62.21;99701.10;1812519;77;21124;-57
2021/07/14 05:43:17;;;;;;;2.25;2.00;;;;;;;26.18;62.36;99698.84;1819301;76;22376;-57
2021/07/14 05:45:44;;;;;;;3.12;2.52;;;;;;;26.27;62.22;99700.59;1818106;76;21481;-58
2021/07/14 05:48:11;;;;;;;4.17;3.87;;;;;;;26.33;61.82;99702.64;1818749;76;21016;-56
2021/07/14 05:50:38;;;;;;;2.65;2.45;;;;;;;26.41;61.82;99701.75;1823496;76;21729;-58
2021/07/14 05:53:05;;;;;;;3.35;2.92;;;;;;;26.49;61.78;99707.25;1821349;76;22058;-57
2021/07/14 05:55:32;;;;;;;3.02;2.83;;;;;;;26.57;61.86;99705.84;1815590;76;21670;-56
2021/07/14 05:57:58;;;;;;;3.47;3.17;;;;;;;26.64;61.38;99708.23;1816530;76;21721;-57
2021/07/14 06:00:26;;;;;;;5.50;3.15;;;;;;;26.74;60.63;99703.37;1822078;76;21100;-57
2021/07/14 06:02:52;;;;;;;6.37;3.65;;;;;;;26.81;60.21;99700.23;1821223;76;21512;-57
2021/07/14 06:05:18;;;;;;;3.55;3.25;;;;;;;26.90;59.95;99705.20;1818927;76;21034;-57
2021/07/14 06:07:45;;;;;;;3.52;3.25;;;;;;;26.97;59.44;99697.94;1812764;76;21092;-55
2021/07/14 06:10:11;;;;;;;3.75;2.98;;;;;;;27.02;58.73;99698.28;1820170;76;21099;-57
2021/07/14 06:12:37;;;;;;;2.98;2.80;;;;;;;27.08;58.62;99703.94;1824430;76;21088;-58
2021/07/14 06:15:06;;;;;;;3.10;2.83;;;;;;;27.14;58.30;99703.72;1825531;76;21104;-57
2021/07/14 06:17:34;;;;;;;4.17;3.20;;;;;;;27.20;58.34;99700.77;1826229;76;20891;-58
2021/07/14 06:20:01;;;;;;;4.90;2.62;;;;;;;27.26;58.68;99701.42;1825479;76;20934;-56
2021/07/14 06:22:27;;;;;;;5.67;2.50;;;;;;;27.31;58.15;99699.82;1822536;76;21554;-56
2021/07/14 06:24:55;;;;;;;2.62;1.82;;;;;;;27.38;58.01;99700.84;1824123;76;21537;-57
2021/07/14 06:27:22;;;;;;;2.60;2.50;;;;;;;27.42;58.18;99704.94;1818105;76;22015;-58
2021/07/14 06:29:48;;;;;;;3.45;2.27;;;;;;;27.48;57.72;99701.95;1824626;76;20934;-57
2021/07/14 06:32:14;;;;;;;3.30;2.15;;;;;;;27.54;56.95;99703.17;1822596;76;20871;-58
2021/07/14 06:34:41;;;;;;;2.87;2.70;;;;;;;27.59;56.13;99704.86;1824481;76;21077;-58
2021/07/14 06:37:08;;;;;;;2.62;2.42;;;;;;;27.62;56.17;99705.36;1821700;76;20926;-58
2021/07/14 06:39:34;;;;;;;3.25;3.05;;;;;;;27.66;54.87;99703.93;1827383;76;20958;-58
2021/07/14 06:42:01;;;;;;;3.87;3.00;;;;;;;27.72;54.73;99706.50;1825017;76;20922;-58
2021/07/14 06:44:27;;;;;;;3.08;2.55;;;;;;;27.77;54.90;99704.89;1828053;76;20978;-56
2021/07/14 06:46:53;;;;;;;3.30;3.12;;;;;;;27.84;55.40;99706.38;1816463;76;22078;-57
2021/07/14 06:49:21;;;;;;;4.50;2.75;;;;;;;27.92;55.95;99702.69;1816517;76;21061;-58
2021/07/14 06:51:48;;;;;;;3.52;3.27;;;;;;;28.00;55.34;99702.61;1823598;76;21054;-56
2021/07/14 06:54:14;;;;;;;5.50;3.45;;;;;;;28.08;54.53;99703.39;1820529;76;21077;-57
2021/07/14 06:56:41;;;;;;;3.75;3.45;;;;;;;28.16;55.17;99703.34;1814477;76;21104;-56
2021/07/14 06:59:07;;;;;;;6.85;3.72;;;;;;;28.23;54.80;99702.09;1819198;76;21817;-59
2021/07/14 07:01:33;;;;;;;4.12;3.90;;;;;;;28.29;54.53;99697.70;1823219;76;21721;-57
2021/07/14 07:04:00;;;;;;;3.35;3.05;;;;;;;28.36;54.77;99693.12;1824910;76;22220;-57
2021/07/14 07:06:26;;;;;;;4.15;3.00;;;;;;;28.41;53.62;99691.50;1820724;76;21034;-55
2021/07/14 07:08:53;;;;;;;3.72;3.52;;;;;;;28.49;53.78;99693.34;1821903;76;21080;-57
2021/07/14 07:11:19;;;;;;;2.98;2.77;;;;;;;28.55;53.92;99694.81;1813392;76;21122;-58
2021/07/14 07:13:46;;;;;;;5.25;2.65;;;;;;;28.61;53.70;99694.56;1816820;76;21011;-58
2021/07/14 07:16:12;;;;;;;9.35;2.12;;;;;;;28.68;53.05;99689.12;1821289;76;20994;-56
2021/07/14 07:18:39;;;;;;;1.90;1.80;;;;;;;28.76;53.33;99695.45;1822147;76;21060;-58
2021/07/14 07:21:07;;;;;;;1.87;1.37;;;;;;;28.85;52.39;99692.05;1817872;76;21019;-57
2021/07/14 07:23:36;;;;;;;3.67;2.02;;;;;;;28.93;50.39;99700.26;1814157;76;21133;-59
2021/07/14 07:26:05;;;;;;;2.80;2.17;;;;;;;29.01;49.60;99695.16;1822493;76;21543;-59
2021/07/14 07:28:36;;;;;;;4.17;1.60;;;;;;;29.09;49.81;99700.59;1814958;76;20981;-57
2021/07/14 07:30:59;;;;;;;1.25;1.15;;;;;;;29.17;49.69;99707.41;1819583;76;21068;-59
2021/07/14 07:33:25;;;;;;;2.12;1.42;;;;;;;29.23;48.39;99705.23;1820564;76;21029;-57
2021/07/14 07:35:52;;;;;;;5.15;1.70;;;;;;;29.28;47.65;99705.50;1821444;76;21887;-58
2021/07/14 07:38:18;;;;;;;4.20;2.08;;;;;;;29.35;48.12;99705.94;1817361;76;21001;-57
2021/07/14 07:40:47;;;;;;;4.50;2.35;;;;;;;29.39;48.51;99698.63;1817239;76;21361;-58
2021/07/14 07:43:13;;;;;;;2.37;1.82;;;;;;;29.41;48.53;99698.77;1818330;76;21021;-58
2021/07/14 07:45:39;;;;;;;4.35;2.40;;;;;;;29.40;49.14;99700.34;1816911;76;21958;-59
2021/07/14 07:48:06;;;;;;;8.45;2.90;;;;;;;29.40;50.09;99703.12;1821303;76;22166;-58
2021/07/14 07:50:32;;;;;;;4.47;2.77;;;;;;;29.39;50.99;99694.47;1821507;76;21468;-57
2021/07/14 07:52:59;;;;;;;3.87;2.35;;;;;;;29.35;51.93;99698.11;1821938;76;22317;-59
2021/07/14 07:55:25;;;;;;;2.55;2.40;;;;;;;29.32;51.82;99691.06;1818404;76;21053;-57
2021/07/14 07:57:52;;;;;;;2.65;2.45;;;;;;;29.26;51.70;99690.44;1818944;76;21155;-58
2021/07/14 08:00:20;;;;;;;3.60;3.25;;;;;;;29.18;51.26;99685.02;1821455;76;21412;-58
2021/07/14 08:02:47;;;;;;;3.20;2.95;;;;;;;29.14;50.98;99689.25;1817667;76;21467;-58
2021/07/14 08:05:14;;;;;;;3.00;2.80;;;;;;;29.14;50.57;99687.00;1821268;76;21021;-56
2021/07/14 08:07:43;;;;;;;1.90;1.62;;;;;;;29.16;50.99;99687.14;1823631;76;21018;-57
2021/07/14 08:10:11;;;;;;;3.02;1.87;;;;;;;29.20;50.93;99681.53;1820426;76;21096;-58
2021/07/14 08:12:38;;;;;;;2.77;1.50;;;;;;;29.30;49.99;99689.01;1826252;76;21008;-59
2021/07/14 08:15:07;;;;;;;3.72;1.77;;;;;;;29.39;49.05;99684.76;1821950;76;21625;-57
2021/07/14 08:17:34;;;;;;;4.95;1.75;;;;;;;29.49;49.08;99676.98;1820977;76;21010;-57
2021/07/14 08:20:00;;;;;;;4.28;1.52;;;;;;;29.60;49.35;99683.41;1817968;76;21065;-58
2021/07/14 08:22:28;;;;;;;2.77;1.57;;;;;;;29.70;48.84;99684.77;1820825;76;21068;-57
2021/07/14 08:24:55;;;;;;;1.80;1.70;;;;;;;29.81;48.87;99679.22;1820842;76;21141;-59
2021/07/14 08:27:24;;;;;;;1.80;1.62;;;;;;;29.90;49.00;99680.80;1818564;76;21115;-59
2021/07/14 08:29:49;;;;;;;1.60;1.50;;;;;;;30.01;48.99;99681.69;1821342;77;21475;-58
2021/07/14 08:32:16;;;;;;;1.60;1.50;;;;;;;30.13;48.07;99681.98;1818155;76;21456;-58
2021/07/14 08:34:43;;;;;;;1.30;1.20;;;;;;;30.21;47.06;99679.58;1825985;76;21335;-58
2021/07/14 08:37:10;;;;;;;1.50;1.40;;;;;;;30.28;46.82;99682.77;1818127;76;22193;-58
2021/07/14 08:39:37;;;;;;;2.83;1.72;;;;;;;30.38;47.41;99683.23;1825222;77;21084;-56
2021/07/14 08:42:04;;;;;;;2.75;1.50;;;;;;;30.44;46.86;99678.81;1822252;76;21124;-58
2021/07/14 08:44:36;;;;;;;2.27;1.30;;;;;;;30.50;45.72;99685.45;1820933;76;21044;-58
2021/07/14 08:47:03;;;;;;;1.92;1.45;;;;;;;30.54;45.60;99683.47;1819175;76;21057;-59
2021/07/14 08:49:29;;;;;;;2.50;1.40;;;;;;;30.56;44.96;99679.97;1822432;76;21096;-55
2021/07/14 08:51:55;;;;;;;2.02;1.10;;;;;;;30.57;45.57;99677.52;1817085;76;21085;-59
2021/07/14 08:54:22;;;;;;;2.47;1.40;;;;;;;30.60;45.06;99678.52;1819487;76;21061;-58
2021/07/14 08:56:50;;;;;;;2.98;1.50;;;;;;;30.66;45.20;99678.21;1819190;76;21646;-59
2021/07/14 08:59:17;;;;;;;2.40;1.62;;;;;;;30.67;44.39;99673.84;1824980;76;21427;-60
2021/07/14 09:01:45;;;;;;;1.30;1.20;;;;;;;30.68;44.70;99676.95;1824141;76;22170;-58
2021/07/14 09:04:11;;;;;;;4.33;1.30;;;;;;;30.70;44.82;99676.23;1825473;76;20949;-58
2021/07/14 09:06:38;;;;;;;2.15;1.37;;;;;;;30.74;45.29;99670.57;1821223;76;20914;-59
2021/07/14 09:09:04;;;;;;;1.65;1.20;;;;;;;30.78;45.44;99669.11;1821038;76;20903;-58
2021/07/14 09:11:31;;;;;;;8.65;2.05;;;;;;;30.86;45.62;99668.60;1821055;76;22089;-58
2021/07/14 09:13:57;;;;;;;1.80;1.30;;;;;;;30.91;45.53;99664.66;1750357;76;21099;-59
2021/07/14 09:16:35;;;;;;;2.10;1.20;;;;;;;30.97;46.08;99669.38;1824214;76;20961;-59
2021/07/14 09:19:13;;;;;;;1.32;1.22;;;;;;;31.05;45.35;99674.79;1823279;76;20942;-59
2021/07/14 09:21:44;;;;;;;1.35;1.12;;;;;;;31.09;43.89;99667.77;1790838;76;21666;-58
2021/07/14 09:24:33;;;;;;;1.32;1.27;;;;;;;31.13;44.45;99666.30;1816776;76;21115;-56
2021/07/14 09:27:03;;;;;;;2.85;1.50;;;;;;;31.17;43.63;99662.88;1825977;76;21088;-56
2021/07/14 09:29:30;;;;;;;1.90;1.20;;;;;;;31.18;44.00;99659.03;1830184;76;20851;-56
2021/07/14 09:31:57;;;;;;;1.60;1.07;;;;;;;31.20;43.47;99662.47;1823732;76;21060;-57
2021/07/14 09:34:31;;;;;;;1.40;1.22;;;;;;;31.24;43.94;99665.67;1822315;76;21078;-59
2021/07/14 09:37:02;;;;;;;3.35;1.42;;;;;;;31.28;42.77;99673.94;1822634;76;21610;-60
2021/07/14 09:39:38;;;;;;;1.30;1.20;;;;;;;31.30;42.62;99663.47;1821818;76;21057;-57
2021/07/14 09:42:11;;;;;;;2.58;1.05;;;;;;;31.34;42.21;99664.75;1821524;76;22038;-55
2021/07/14 09:44:47;;;;;;;1.35;1.25;;;;;;;31.38;43.25;99666.06;1820780;76;23769;-55
2021/07/14 09:48:47;;;;;;;2.65;1.30;;;;;;;31.47;42.78;99652.81;1786245;78;22778;-56
2021/07/14 09:51:19;;;;;;;4.35;1.25;;;;;;;31.45;43.32;99661.89;1767884;79;20926;-57
2021/07/14 09:53:51;;;;;;;1.40;1.30;;;;;;;31.50;43.35;99665.74;1767711;79;21318;-57
2021/07/14 09:56:27;;;;;;;3.15;1.32;;;;;;;31.54;42.35;99655.92;1768195;79;20973;-58
2021/07/14 09:59:11;;;;;;;1.57;1.20;;;;;;;31.56;41.31;99655.16;1763826;79;21108;-56
2021/07/14 10:01:48;;;;;;;1.77;1.32;;;;;;;31.59;41.87;99662.23;1767093;79;21127;-57
2021/07/14 10:04:26;;;;;;;14.05;2.17;;;;;;;31.59;42.22;99660.31;1766559;79;20974;-54
2021/07/14 10:07:11;;;;;;;1.85;1.30;;;;;;;31.62;42.44;99661.85;1770614;79;21388;-56
2021/07/14 10:09:38;;;;;;;1.75;1.05;;;;;;;31.65;42.84;99655.84;1760053;79;21593;-60
2021/07/14 10:12:34;;;;;;;1.30;1.20;;;;;;;31.66;42.26;99659.48;1766712;79;21570;-60
2021/07/14 10:15:21;;;;;;;3.92;1.35;;;;;;;31.63;42.49;99659.40;1715918;81;21083;-59
2021/07/14 10:17:52;;;;;;;1.85;1.37;;;;;;;31.64;42.17;99668.07;1718293;81;21340;-60
2021/07/14 10:20:34;;;;;;;3.98;1.27;;;;;;;31.66;41.38;99671.47;1743086;79;21496;-59
2021/07/14 10:23:13;;;;;;;1.42;1.20;;;;;;;31.66;41.17;99658.09;1765090;79;22496;-59
2021/07/14 10:25:42;;;;;;;1.30;1.20;;;;;;;31.65;40.00;99661.94;1763187;79;21019;-58
2021/07/14 10:28:09;;;;;;;1.20;1.10;;;;;;;31.61;40.41;99656.45;1768839;79;20915;-60
2021/07/14 10:30:38;;;;;;;1.62;1.25;;;;;;;31.57;41.20;99650.45;1762430;79;21087;-58
2021/07/14 10:33:05;;;;;;;1.57;1.20;;;;;;;31.58;42.97;99646.07;1764573;80;21071;-59
2021/07/14 10:35:36;;;;;;;2.10;1.27;;;;;;;31.66;43.55;99649.75;1764744;79;20859;-58
2021/07/14 10:38:04;;;;;;;2.17;1.20;;;;;;;31.72;43.11;99651.70;1767874;79;20861;-58
2021/07/14 10:40:32;;;;;;;7.80;1.40;;;;;;;31.79;43.78;99660.38;1768019;79;21053;-60
2021/07/14 10:43:00;;;;;;;1.40;1.20;;;;;;;31.83;42.36;99656.08;1766194;79;21100;-58
2021/07/14 10:45:27;;;;;;;1.70;1.45;;;;;;;31.86;42.52;99656.20;1762769;79;22638;-59
2021/07/14 10:47:55;;;;;;;1.32;1.20;;;;;;;31.90;42.16;99661.67;1765358;78;21576;-58
2021/07/14 10:50:25;;;;;;;1.35;1.20;;;;;;;31.93;42.04;99659.30;1758647;80;21086;-57
2021/07/14 10:52:52;;;;;;;1.30;1.20;;;;;;;31.97;42.04;99659.73;1761181;79;21036;-55
2021/07/14 10:55:24;;;;;;;2.08;1.30;;;;;;;31.99;42.20;99658.97;1763347;80;21070;-58
2021/07/14 10:57:51;;;;;;;1.80;1.70;;;;;;;32.03;42.05;99663.05;1736838;80;21398;-56
2021/07/14 11:00:18;;;;;;;2.02;1.30;;;;;;;32.05;41.69;99655.88;1763733;80;21721;-57
2021/07/14 11:02:49;;;;;;;3.10;1.30;;;;;;;32.07;41.52;99654.57;1757240;80;21653;-57
2021/07/14 11:05:16;;;;;;;2.65;1.30;;;;;;;32.09;41.31;99658.54;1758453;80;21089;-57
2021/07/14 11:07:45;;;;;;;1.72;1.40;;;;;;;32.14;41.90;99659.63;1736055;80;20962;-59
2021/07/14 11:10:28;;;;;;;1.30;1.20;;;;;;;32.18;41.44;99659.53;1764050;79;21635;-58
2021/07/14 11:12:56;;;;;;;1.25;1.15;;;;;;;32.21;41.55;99650.77;1761478;80;20953;-57
2021/07/14 11:15:31;;;;;;;2.67;1.42;;;;;;;32.23;42.03;99656.98;1766022;80;22090;-59
2021/07/14 11:17:59;;;;;;;1.55;1.32;;;;;;;32.26;42.22;99651.48;1765170;80;21009;-58
2021/07/14 11:20:38;;;;;;;1.40;1.25;;;;;;;32.29;41.20;99649.14;1763959;80;21057;-58
2021/07/14 11:23:19;;;;;;;2.55;1.15;;;;;;;32.33;41.01;99649.55;1765990;80;21440;-57
2021/07/14 11:25:50;;;;;;;1.87;1.20;;;;;;;32.33;41.24;99650.41;1701371;82;21152;-57
2021/07/14 11:28:16;;;;;;;3.62;1.15;;;;;;;32.38;41.09;99647.52;1758573;79;21207;-58
2021/07/14 11:30:48;;;;;;;1.37;1.27;;;;;;;32.41;41.08;99641.52;1759759;80;21581;-57
2021/07/14 11:33:30;;;;;;;3.10;1.05;;;;;;;32.45;41.18;99647.83;1760220;80;21089;-56
2021/07/14 11:36:07;;;;;;;1.15;1.05;;;;;;;32.49;41.12;99646.86;1762391;80;21030;-58
2021/07/14 11:38:50;;;;;;;2.00;1.20;;;;;;;32.50;40.75;99651.33;1765333;80;20895;-57
2021/07/14 11:41:21;;;;;;;1.00;1.00;;;;;;;32.50;39.85;99647.16;1703771;82;21057;-58
2021/07/14 11:43:50;;;;;;;1.85;1.10;;;;;;;32.50;41.18;99643.83;1767673;80;20925;-56
2021/07/14 11:46:17;;;;;;;2.02;1.30;;;;;;;32.49;40.62;99642.15;1719959;80;21349;-56
2021/07/14 11:48:48;;;;;;;3.42;1.07;;;;;;;32.50;40.26;99645.23;1759316;80;21244;-57
2021/07/14 11:51:20;;;;;;;1.15;1.00;;;;;;;32.49;40.31;99644.94;1757765;80;21500;-59
2021/07/14 11:53:51;;;;;;;1.45;1.05;;;;;;;32.49;40.36;99646.86;1751808;80;20882;-57
2021/07/14 11:56:29;;;;;;;1.17;1.10;;;;;;;32.50;40.20;99645.23;1752786;80;20943;-58